首页
METAR-TAF:

METAR-TAF

机场 :

Sedona, 亞利桑那州, 美国

纬度: 34-51N, 经度: 111-47W, 海拔: 1471米

当前天气观测

该预报发布于23分钟前的07:55 UTC
风速8节,风向北转东北
温度 7°C
湿度 61%
气压 1018 hPa
能見度: 16.1公里
天空无云

METAR: KSEZ 170755Z AUTO 02008KT 10SM CLR 07/00 A3005 RMK AO2

时间: 01:18 (08:18 UTC)

预报

该预报发布于2小时和58分钟前的05:20 UTC
预报有效从17日的 06点(UTC)到 18日的 06点(UTC)
风速10节,风向东北
能見度: 10公里
少量云层高于20000英尺
从 17日的 1500点(UTC)
风速5节,风向多变
能見度: 10公里
散云层高于20000英尺

TAF: KSEZ 170520Z 1706/1806 04010KT P6SM FEW200 FM171500 VRB05KT P6SM SCT200

超过4000个机场的气象观测和天气预报(METAR&TAF报告)。

可查询的气象台以黄色和红色小点在地图上表示。

将鼠标移到小点上方,可查看气象台名称。

然后点击查看天气观测和预报。

如需切换地图:点击带黑十字的绿色按钮放大地图;点击带横线的绿色按钮缩小地图;或者点击绿色箭头查看邻近地区的地图。


METAR-TAF: